Terminal Aerodrome Forecast
Issued by NWS Billings, MT

Home | Current Version | Previous Version | Text Only | Print | Product List | Glossary On
Versions: 1 2 3 4 5 6 7 8 9 10 11 12 13 14 15 16 17 18 19 20 21 22 23 24 25 26 27 28 29 30
000
FTUS45 KBYZ 032145 AAA
TAFBIL
TAF AMD
KBIL 032145Z 0322/0418 07012G21KT P6SM VCTS SCT100CB
     FM040500 35012KT P6SM VCTS SCT100CB
     FM041000 VRB06KT P6SM FEW040 SCT150=

USA.gov is the U.S. government's official web portal to all federal, state and local government web resources and services.